sensor_id;sensor_type;location;lat;lon;timestamp;pressure;altitude;pressure_sealevel;temperature;humidity
47330;BME280;33060;50.178;7.570;2023-08-31T00:01:03;96411.09;;;12.39;100.00
47330;BME280;33060;50.178;7.570;2023-08-31T00:03:32;96407.53;;;12.19;100.00
47330;BME280;33060;50.178;7.570;2023-08-31T00:06:01;96408.31;;;12.00;100.00
47330;BME280;33060;50.178;7.570;2023-08-31T00:08:28;96412.03;;;11.98;100.00
47330;BME280;33060;50.178;7.570;2023-08-31T00:10:56;96405.28;;;12.14;100.00
47330;BME280;33060;50.178;7.570;2023-08-31T00:13:22;96408.03;;;12.03;100.00
47330;BME280;33060;50.178;7.570;2023-08-31T00:15:50;96404.81;;;12.00;100.00
47330;BME280;33060;50.178;7.570;2023-08-31T00:18:17;96411.88;;;12.30;100.00
47330;BME280;33060;50.178;7.570;2023-08-31T00:20:44;96404.22;;;12.27;100.00
47330;BME280;33060;50.178;7.570;2023-08-31T00:23:11;96403.72;;;12.42;100.00
47330;BME280;33060;50.178;7.570;2023-08-31T00:25:38;96398.63;;;12.60;100.00
47330;BME280;33060;50.178;7.570;2023-08-31T00:28:05;96402.28;;;12.29;100.00
47330;BME280;33060;50.178;7.570;2023-08-31T00:30:31;96398.13;;;12.36;100.00
47330;BME280;33060;50.178;7.570;2023-08-31T00:32:58;96398.28;;;12.34;100.00
47330;BME280;33060;50.178;7.570;2023-08-31T00:35:28;96392.22;;;12.23;100.00
47330;BME280;33060;50.178;7.570;2023-08-31T00:37:57;96394.94;;;12.42;100.00
47330;BME280;33060;50.178;7.570;2023-08-31T00:40:25;96394.81;;;12.34;100.00
47330;BME280;33060;50.178;7.570;2023-08-31T00:42:52;96395.31;;;12.28;100.00
47330;BME280;33060;50.178;7.570;2023-08-31T00:45:19;96394.00;;;12.12;100.00
47330;BME280;33060;50.178;7.570;2023-08-31T00:47:46;96401.00;;;12.23;100.00
47330;BME280;33060;50.178;7.570;2023-08-31T00:50:16;96394.81;;;12.43;100.00
47330;BME280;33060;50.178;7.570;2023-08-31T00:52:43;96393.53;;;12.38;100.00
47330;BME280;33060;50.178;7.570;2023-08-31T00:55:14;96392.56;;;12.39;100.00
47330;BME280;33060;50.178;7.570;2023-08-31T00:57:44;96397.56;;;12.42;100.00
47330;BME280;33060;50.178;7.570;2023-08-31T01:00:13;96397.75;;;12.10;100.00
47330;BME280;33060;50.178;7.570;2023-08-31T01:05:32;96392.97;;;11.94;100.00
47330;BME280;33060;50.178;7.570;2023-08-31T01:11:34;96384.34;;;11.92;100.00
47330;BME280;33060;50.178;7.570;2023-08-31T01:14:09;96393.53;;;11.77;100.00
47330;BME280;33060;50.178;7.570;2023-08-31T01:16:39;96378.47;;;11.68;100.00
47330;BME280;33060;50.178;7.570;2023-08-31T01:19:20;96386.00;;;11.72;100.00
47330;BME280;33060;50.178;7.570;2023-08-31T01:21:54;96378.28;;;11.59;100.00
47330;BME280;33060;50.178;7.570;2023-08-31T01:24:24;96383.66;;;11.79;100.00
47330;BME280;33060;50.178;7.570;2023-08-31T01:26:53;96381.28;;;11.97;100.00
47330;BME280;33060;50.178;7.570;2023-08-31T01:29:20;96383.03;;;11.86;100.00
47330;BME280;33060;50.178;7.570;2023-08-31T01:31:46;96379.22;;;11.79;100.00
47330;BME280;33060;50.178;7.570;2023-08-31T01:34:13;96382.38;;;11.94;100.00
47330;BME280;33060;50.178;7.570;2023-08-31T01:36:45;96381.81;;;11.91;100.00
47330;BME280;33060;50.178;7.570;2023-08-31T01:41:44;96397.00;;;11.77;100.00
47330;BME280;33060;50.178;7.570;2023-08-31T01:44:15;96388.22;;;11.98;100.00
47330;BME280;33060;50.178;7.570;2023-08-31T01:46:46;96401.94;;;11.82;100.00
47330;BME280;33060;50.178;7.570;2023-08-31T01:49:12;96400.72;;;11.86;100.00
47330;BME280;33060;50.178;7.570;2023-08-31T01:51:40;96402.75;;;12.03;100.00
47330;BME280;33060;50.178;7.570;2023-08-31T01:54:07;96405.41;;;12.13;100.00
47330;BME280;33060;50.178;7.570;2023-08-31T01:56:34;96410.38;;;12.06;100.00
47330;BME280;33060;50.178;7.570;2023-08-31T01:59:01;96411.91;;;11.99;100.00
47330;BME280;33060;50.178;7.570;2023-08-31T02:01:27;96415.34;;;12.21;100.00
47330;BME280;33060;50.178;7.570;2023-08-31T02:03:55;96415.59;;;12.18;100.00
47330;BME280;33060;50.178;7.570;2023-08-31T02:06:22;96409.19;;;12.10;100.00
47330;BME280;33060;50.178;7.570;2023-08-31T02:08:49;96412.06;;;12.07;100.00
47330;BME280;33060;50.178;7.570;2023-08-31T02:11:17;96407.66;;;11.66;100.00
47330;BME280;33060;50.178;7.570;2023-08-31T02:13:43;96412.69;;;11.90;100.00
47330;BME280;33060;50.178;7.570;2023-08-31T02:16:10;96414.34;;;11.70;100.00
47330;BME280;33060;50.178;7.570;2023-08-31T02:18:37;96420.88;;;11.87;100.00
47330;BME280;33060;50.178;7.570;2023-08-31T02:21:04;96404.53;;;12.03;100.00
47330;BME280;33060;50.178;7.570;2023-08-31T02:23:33;96408.03;;;12.03;100.00
47330;BME280;33060;50.178;7.570;2023-08-31T02:26:01;96397.38;;;11.84;100.00
47330;BME280;33060;50.178;7.570;2023-08-31T02:28:27;96398.84;;;11.56;100.00
47330;BME280;33060;50.178;7.570;2023-08-31T02:31:01;96407.91;;;11.42;100.00
47330;BME280;33060;50.178;7.570;2023-08-31T02:33:29;96405.78;;;11.78;100.00
47330;BME280;33060;50.178;7.570;2023-08-31T02:35:56;96402.88;;;11.60;100.00
47330;BME280;33060;50.178;7.570;2023-08-31T02:38:23;96405.34;;;11.31;100.00
47330;BME280;33060;50.178;7.570;2023-08-31T02:40:50;96408.50;;;11.46;100.00
47330;BME280;33060;50.178;7.570;2023-08-31T02:43:16;96409.22;;;11.48;100.00
47330;BME280;33060;50.178;7.570;2023-08-31T02:45:43;96411.31;;;11.12;100.00
47330;BME280;33060;50.178;7.570;2023-08-31T02:48:10;96427.22;;;11.22;100.00
47330;BME280;33060;50.178;7.570;2023-08-31T02:50:38;96429.31;;;11.39;100.00
47330;BME280;33060;50.178;7.570;2023-08-31T02:53:05;96431.63;;;11.00;100.00
47330;BME280;33060;50.178;7.570;2023-08-31T02:55:32;96422.19;;;11.19;100.00
47330;BME280;33060;50.178;7.570;2023-08-31T02:57:59;96423.97;;;11.29;100.00
47330;BME280;33060;50.178;7.570;2023-08-31T03:00:27;96426.91;;;11.15;100.00
47330;BME280;33060;50.178;7.570;2023-08-31T03:02:54;96439.66;;;10.99;100.00
47330;BME280;33060;50.178;7.570;2023-08-31T03:05:23;96428.75;;;11.03;100.00
47330;BME280;33060;50.178;7.570;2023-08-31T03:07:49;96427.09;;;11.23;100.00
47330;BME280;33060;50.178;7.570;2023-08-31T03:10:16;96428.94;;;11.12;100.00
47330;BME280;33060;50.178;7.570;2023-08-31T03:12:43;96423.97;;;10.97;100.00
47330;BME280;33060;50.178;7.570;2023-08-31T03:15:09;96418.75;;;11.39;100.00
47330;BME280;33060;50.178;7.570;2023-08-31T03:17:37;96432.81;;;11.08;100.00
47330;BME280;33060;50.178;7.570;2023-08-31T03:20:04;96427.31;;;11.31;100.00
47330;BME280;33060;50.178;7.570;2023-08-31T03:22:32;96416.53;;;11.23;100.00
47330;BME280;33060;50.178;7.570;2023-08-31T03:24:59;96420.97;;;11.23;100.00
47330;BME280;33060;50.178;7.570;2023-08-31T03:27:26;96424.50;;;10.80;100.00
47330;BME280;33060;50.178;7.570;2023-08-31T03:29:53;96424.72;;;10.77;100.00
47330;BME280;33060;50.178;7.570;2023-08-31T03:32:19;96427.84;;;10.82;100.00
47330;BME280;33060;50.178;7.570;2023-08-31T03:34:46;96418.19;;;10.60;100.00
47330;BME280;33060;50.178;7.570;2023-08-31T03:37:13;96416.38;;;10.72;100.00
47330;BME280;33060;50.178;7.570;2023-08-31T03:39:40;96418.84;;;10.85;100.00
47330;BME280;33060;50.178;7.570;2023-08-31T03:42:08;96423.34;;;10.94;100.00
47330;BME280;33060;50.178;7.570;2023-08-31T03:44:35;96424.84;;;10.75;100.00
47330;BME280;33060;50.178;7.570;2023-08-31T03:47:03;96418.25;;;10.81;100.00
47330;BME280;33060;50.178;7.570;2023-08-31T03:49:30;96416.19;;;10.85;100.00
47330;BME280;33060;50.178;7.570;2023-08-31T03:51:59;96420.63;;;10.84;100.00
47330;BME280;33060;50.178;7.570;2023-08-31T03:54:26;96416.91;;;11.19;100.00
47330;BME280;33060;50.178;7.570;2023-08-31T03:56:53;96424.38;;;11.14;100.00
47330;BME280;33060;50.178;7.570;2023-08-31T03:59:20;96435.31;;;11.09;100.00
47330;BME280;33060;50.178;7.570;2023-08-31T04:01:46;96440.78;;;10.85;100.00
47330;BME280;33060;50.178;7.570;2023-08-31T04:04:13;96433.91;;;11.26;100.00
47330;BME280;33060;50.178;7.570;2023-08-31T04:06:40;96433.84;;;11.16;100.00
47330;BME280;33060;50.178;7.570;2023-08-31T04:09:07;96430.28;;;11.06;100.00
47330;BME280;33060;50.178;7.570;2023-08-31T04:11:34;96447.06;;;10.73;100.00
47330;BME280;33060;50.178;7.570;2023-08-31T04:14:02;96450.69;;;11.04;100.00
47330;BME280;33060;50.178;7.570;2023-08-31T04:16:29;96449.56;;;11.18;100.00
47330;BME280;33060;50.178;7.570;2023-08-31T04:18:55;96448.63;;;11.08;100.00
47330;BME280;33060;50.178;7.570;2023-08-31T04:21:22;96449.94;;;10.70;100.00
47330;BME280;33060;50.178;7.570;2023-08-31T04:23:48;96459.25;;;10.85;100.00
47330;BME280;33060;50.178;7.570;2023-08-31T04:26:15;96459.97;;;10.76;100.00
47330;BME280;33060;50.178;7.570;2023-08-31T04:28:44;96460.47;;;10.81;100.00
47330;BME280;33060;50.178;7.570;2023-08-31T04:31:11;96465.56;;;11.05;100.00
47330;BME280;33060;50.178;7.570;2023-08-31T04:33:38;96465.47;;;10.84;100.00
47330;BME280;33060;50.178;7.570;2023-08-31T04:36:05;96470.00;;;10.93;100.00
47330;BME280;33060;50.178;7.570;2023-08-31T04:38:34;96476.19;;;10.71;100.00
47330;BME280;33060;50.178;7.570;2023-08-31T04:41:01;96479.63;;;10.83;100.00
47330;BME280;33060;50.178;7.570;2023-08-31T04:43:27;96481.09;;;10.87;100.00
47330;BME280;33060;50.178;7.570;2023-08-31T04:45:54;96478.59;;;11.18;100.00
47330;BME280;33060;50.178;7.570;2023-08-31T04:48:21;96490.06;;;11.28;100.00
47330;BME280;33060;50.178;7.570;2023-08-31T04:50:48;96489.41;;;11.47;100.00
47330;BME280;33060;50.178;7.570;2023-08-31T04:53:15;96498.47;;;11.33;100.00
47330;BME280;33060;50.178;7.570;2023-08-31T04:55:41;96495.13;;;11.20;100.00
47330;BME280;33060;50.178;7.570;2023-08-31T04:58:08;96490.81;;;11.30;100.00
47330;BME280;33060;50.178;7.570;2023-08-31T05:00:35;96504.31;;;11.37;100.00
47330;BME280;33060;50.178;7.570;2023-08-31T05:03:01;96492.75;;;11.49;100.00
47330;BME280;33060;50.178;7.570;2023-08-31T05:05:29;96498.72;;;11.30;100.00
47330;BME280;33060;50.178;7.570;2023-08-31T05:07:58;96503.66;;;11.23;100.00
47330;BME280;33060;50.178;7.570;2023-08-31T05:10:25;96501.59;;;11.27;100.00
47330;BME280;33060;50.178;7.570;2023-08-31T05:12:52;96507.72;;;11.59;100.00
47330;BME280;33060;50.178;7.570;2023-08-31T05:15:18;96511.59;;;11.55;100.00
47330;BME280;33060;50.178;7.570;2023-08-31T05:17:45;96508.06;;;11.34;100.00
47330;BME280;33060;50.178;7.570;2023-08-31T05:20:12;96520.03;;;11.70;100.00
47330;BME280;33060;50.178;7.570;2023-08-31T05:22:39;96525.78;;;11.43;100.00
47330;BME280;33060;50.178;7.570;2023-08-31T05:25:06;96529.03;;;11.36;100.00
47330;BME280;33060;50.178;7.570;2023-08-31T05:27:33;96530.72;;;11.69;100.00
47330;BME280;33060;50.178;7.570;2023-08-31T05:30:00;96533.25;;;11.38;100.00
47330;BME280;33060;50.178;7.570;2023-08-31T05:32:30;96539.69;;;11.45;100.00
47330;BME280;33060;50.178;7.570;2023-08-31T05:34:56;96536.06;;;11.57;100.00
47330;BME280;33060;50.178;7.570;2023-08-31T05:37:25;96541.09;;;11.60;100.00
47330;BME280;33060;50.178;7.570;2023-08-31T05:39:51;96539.28;;;11.93;100.00
47330;BME280;33060;50.178;7.570;2023-08-31T05:42:18;96541.03;;;11.72;100.00
47330;BME280;33060;50.178;7.570;2023-08-31T05:44:45;96528.06;;;11.80;100.00
47330;BME280;33060;50.178;7.570;2023-08-31T05:47:11;96529.00;;;11.79;100.00
47330;BME280;33060;50.178;7.570;2023-08-31T05:49:38;96535.75;;;11.72;100.00
47330;BME280;33060;50.178;7.570;2023-08-31T05:52:05;96548.59;;;11.76;100.00
47330;BME280;33060;50.178;7.570;2023-08-31T05:54:32;96549.94;;;11.82;100.00
47330;BME280;33060;50.178;7.570;2023-08-31T05:56:59;96550.81;;;11.92;100.00
47330;BME280;33060;50.178;7.570;2023-08-31T05:59:25;96560.25;;;11.74;100.00
47330;BME280;33060;50.178;7.570;2023-08-31T06:01:52;96552.81;;;12.21;100.00
47330;BME280;33060;50.178;7.570;2023-08-31T06:04:22;96552.97;;;12.50;100.00
47330;BME280;33060;50.178;7.570;2023-08-31T06:06:48;96561.91;;;11.86;100.00
47330;BME280;33060;50.178;7.570;2023-08-31T06:09:18;96559.59;;;12.13;100.00
47330;BME280;33060;50.178;7.570;2023-08-31T06:11:45;96557.41;;;12.19;100.00
47330;BME280;33060;50.178;7.570;2023-08-31T06:14:11;96561.47;;;12.02;100.00
47330;BME280;33060;50.178;7.570;2023-08-31T06:16:38;96564.69;;;12.26;100.00
47330;BME280;33060;50.178;7.570;2023-08-31T06:19:05;96572.25;;;12.10;100.00
47330;BME280;33060;50.178;7.570;2023-08-31T06:21:31;96569.13;;;12.47;100.00
47330;BME280;33060;50.178;7.570;2023-08-31T06:23:58;96573.69;;;12.24;100.00
47330;BME280;33060;50.178;7.570;2023-08-31T06:26:25;96570.03;;;12.15;100.00
47330;BME280;33060;50.178;7.570;2023-08-31T06:28:52;96577.97;;;12.36;100.00
47330;BME280;33060;50.178;7.570;2023-08-31T06:31:19;96569.97;;;12.47;100.00
47330;BME280;33060;50.178;7.570;2023-08-31T06:33:46;96579.69;;;12.05;100.00
47330;BME280;33060;50.178;7.570;2023-08-31T06:36:12;96586.28;;;12.10;100.00
47330;BME280;33060;50.178;7.570;2023-08-31T06:38:39;96591.19;;;11.94;100.00
47330;BME280;33060;50.178;7.570;2023-08-31T06:41:05;96585.00;;;12.05;100.00
47330;BME280;33060;50.178;7.570;2023-08-31T06:43:32;96598.91;;;11.86;100.00
47330;BME280;33060;50.178;7.570;2023-08-31T06:45:59;96595.84;;;12.02;100.00
47330;BME280;33060;50.178;7.570;2023-08-31T06:48:43;96591.91;;;12.17;100.00
47330;BME280;33060;50.178;7.570;2023-08-31T06:51:10;96600.84;;;12.05;100.00
47330;BME280;33060;50.178;7.570;2023-08-31T06:53:36;96596.63;;;12.34;100.00
47330;BME280;33060;50.178;7.570;2023-08-31T06:56:04;96603.66;;;12.45;100.00
47330;BME280;33060;50.178;7.570;2023-08-31T06:58:30;96602.41;;;12.28;100.00
47330;BME280;33060;50.178;7.570;2023-08-31T07:00:57;96603.88;;;12.42;100.00
47330;BME280;33060;50.178;7.570;2023-08-31T07:03:24;96603.66;;;12.45;100.00
47330;BME280;33060;50.178;7.570;2023-08-31T07:05:53;96605.03;;;12.49;100.00
47330;BME280;33060;50.178;7.570;2023-08-31T07:08:20;96600.94;;;12.35;100.00
47330;BME280;33060;50.178;7.570;2023-08-31T07:10:49;96598.63;;;12.72;100.00
47330;BME280;33060;50.178;7.570;2023-08-31T07:13:17;96598.28;;;12.56;100.00
47330;BME280;33060;50.178;7.570;2023-08-31T07:15:43;96595.22;;;12.91;100.00
47330;BME280;33060;50.178;7.570;2023-08-31T07:18:10;96592.53;;;13.12;100.00
47330;BME280;33060;50.178;7.570;2023-08-31T07:20:37;96595.28;;;13.32;100.00
47330;BME280;33060;50.178;7.570;2023-08-31T07:23:03;96590.59;;;13.64;100.00
47330;BME280;33060;50.178;7.570;2023-08-31T07:25:30;96602.72;;;13.57;100.00
47330;BME280;33060;50.178;7.570;2023-08-31T07:27:57;96600.47;;;13.62;99.51
47330;BME280;33060;50.178;7.570;2023-08-31T07:30:23;96602.47;;;13.99;100.00
47330;BME280;33060;50.178;7.570;2023-08-31T07:32:50;96600.91;;;13.77;99.83
47330;BME280;33060;50.178;7.570;2023-08-31T07:35:17;96605.09;;;13.60;97.90
47330;BME280;33060;50.178;7.570;2023-08-31T07:37:44;96593.66;;;13.98;98.51
47330;BME280;33060;50.178;7.570;2023-08-31T07:40:10;96606.06;;;13.59;97.42
47330;BME280;33060;50.178;7.570;2023-08-31T07:42:37;96611.47;;;13.38;99.51
47330;BME280;33060;50.178;7.570;2023-08-31T07:45:04;96610.09;;;13.53;100.00
47330;BME280;33060;50.178;7.570;2023-08-31T07:47:32;96612.91;;;13.71;100.00
47330;BME280;33060;50.178;7.570;2023-08-31T07:50:01;96615.28;;;14.23;99.34
47330;BME280;33060;50.178;7.570;2023-08-31T07:52:28;96613.53;;;14.89;95.08
47330;BME280;33060;50.178;7.570;2023-08-31T07:54:54;96618.78;;;14.99;92.87
47330;BME280;33060;50.178;7.570;2023-08-31T07:57:21;96633.69;;;14.73;95.05
47330;BME280;33060;50.178;7.570;2023-08-31T07:59:48;96623.72;;;14.84;93.73
47330;BME280;33060;50.178;7.570;2023-08-31T08:02:15;96627.13;;;15.14;93.05
47330;BME280;33060;50.178;7.570;2023-08-31T08:04:51;96639.03;;;14.63;90.91
47330;BME280;33060;50.178;7.570;2023-08-31T08:07:18;96645.25;;;14.91;91.64
47330;BME280;33060;50.178;7.570;2023-08-31T08:09:44;96646.28;;;14.22;92.53
47330;BME280;33060;50.178;7.570;2023-08-31T08:12:11;96642.13;;;14.10;93.73
47330;BME280;33060;50.178;7.570;2023-08-31T08:14:38;96650.75;;;14.31;93.55
47330;BME280;33060;50.178;7.570;2023-08-31T08:17:04;96663.31;;;13.91;93.81
47330;BME280;33060;50.178;7.570;2023-08-31T08:19:31;96658.03;;;14.10;94.02
47330;BME280;33060;50.178;7.570;2023-08-31T08:21:58;96661.38;;;14.31;93.96
47330;BME280;33060;50.178;7.570;2023-08-31T08:24:24;96659.69;;;14.69;93.35
47330;BME280;33060;50.178;7.570;2023-08-31T08:26:51;96662.47;;;14.67;93.12
47330;BME280;33060;50.178;7.570;2023-08-31T08:29:18;96660.78;;;14.86;91.14
47330;BME280;33060;50.178;7.570;2023-08-31T08:31:44;96663.50;;;15.13;91.51
47330;BME280;33060;50.178;7.570;2023-08-31T08:34:11;96662.69;;;14.93;92.89
47330;BME280;33060;50.178;7.570;2023-08-31T08:36:38;96660.94;;;15.21;90.56
47330;BME280;33060;50.178;7.570;2023-08-31T08:39:05;96672.72;;;14.53;91.93
47330;BME280;33060;50.178;7.570;2023-08-31T08:41:33;96669.44;;;14.88;92.25
47330;BME280;33060;50.178;7.570;2023-08-31T08:44:02;96672.84;;;14.51;92.64
47330;BME280;33060;50.178;7.570;2023-08-31T08:46:31;96675.31;;;14.82;94.73
47330;BME280;33060;50.178;7.570;2023-08-31T08:49:00;96674.88;;;14.96;91.52
47330;BME280;33060;50.178;7.570;2023-08-31T08:51:30;96678.09;;;15.27;89.45
47330;BME280;33060;50.178;7.570;2023-08-31T08:53:59;96681.16;;;14.85;89.44
47330;BME280;33060;50.178;7.570;2023-08-31T08:56:27;96677.72;;;15.22;89.86
47330;BME280;33060;50.178;7.570;2023-08-31T08:58:53;96683.28;;;14.82;90.23
47330;BME280;33060;50.178;7.570;2023-08-31T09:01:21;96691.66;;;14.87;92.26
47330;BME280;33060;50.178;7.570;2023-08-31T09:03:49;96693.63;;;14.36;93.84
47330;BME280;33060;50.178;7.570;2023-08-31T09:06:16;96686.50;;;14.76;91.11
47330;BME280;33060;50.178;7.570;2023-08-31T09:08:43;96694.75;;;14.43;90.92
47330;BME280;33060;50.178;7.570;2023-08-31T09:11:19;96708.34;;;14.60;92.01
47330;BME280;33060;50.178;7.570;2023-08-31T09:13:47;96702.81;;;14.13;91.87
47330;BME280;33060;50.178;7.570;2023-08-31T09:16:28;96700.88;;;14.15;90.56
47330;BME280;33060;50.178;7.570;2023-08-31T09:18:56;96712.03;;;14.09;91.46
47330;BME280;33060;50.178;7.570;2023-08-31T09:21:36;96709.41;;;14.28;91.16
47330;BME280;33060;50.178;7.570;2023-08-31T09:24:07;96710.78;;;15.00;88.83
47330;BME280;33060;50.178;7.570;2023-08-31T09:26:54;96704.53;;;15.38;87.36
47330;BME280;33060;50.178;7.570;2023-08-31T09:29:21;96709.84;;;15.75;83.75
47330;BME280;33060;50.178;7.570;2023-08-31T09:31:49;96710.91;;;15.45;86.80
47330;BME280;33060;50.178;7.570;2023-08-31T09:34:17;96700.09;;;15.66;84.68
47330;BME280;33060;50.178;7.570;2023-08-31T09:36:44;96700.19;;;16.20;84.05
47330;BME280;33060;50.178;7.570;2023-08-31T09:39:13;96703.41;;;16.77;81.27
47330;BME280;33060;50.178;7.570;2023-08-31T09:41:56;96700.53;;;16.96;79.63
47330;BME280;33060;50.178;7.570;2023-08-31T09:44:22;96705.22;;;17.02;80.30
47330;BME280;33060;50.178;7.570;2023-08-31T09:46:49;96701.81;;;15.85;80.33
47330;BME280;33060;50.178;7.570;2023-08-31T09:49:17;96705.59;;;16.28;81.48
47330;BME280;33060;50.178;7.570;2023-08-31T09:51:46;96697.69;;;16.36;79.88
47330;BME280;33060;50.178;7.570;2023-08-31T09:54:16;96693.97;;;15.83;80.86
47330;BME280;33060;50.178;7.570;2023-08-31T09:56:46;96712.94;;;15.24;83.00
47330;BME280;33060;50.178;7.570;2023-08-31T09:59:15;96700.06;;;15.94;82.51
47330;BME280;33060;50.178;7.570;2023-08-31T10:01:45;96697.13;;;16.32;81.98
47330;BME280;33060;50.178;7.570;2023-08-31T10:04:13;96693.25;;;16.80;83.62
47330;BME280;33060;50.178;7.570;2023-08-31T10:06:41;96689.19;;;17.20;78.38
47330;BME280;33060;50.178;7.570;2023-08-31T10:09:08;96695.69;;;16.38;77.92
47330;BME280;33060;50.178;7.570;2023-08-31T10:11:37;96693.44;;;16.25;79.58
47330;BME280;33060;50.178;7.570;2023-08-31T10:14:04;96691.09;;;16.66;77.73
47330;BME280;33060;50.178;7.570;2023-08-31T10:16:32;96685.91;;;17.00;77.42
47330;BME280;33060;50.178;7.570;2023-08-31T10:18:59;96681.56;;;16.99;77.00
47330;BME280;33060;50.178;7.570;2023-08-31T10:21:26;96689.97;;;16.86;76.26
47330;BME280;33060;50.178;7.570;2023-08-31T10:23:52;96682.03;;;16.69;74.66
47330;BME280;33060;50.178;7.570;2023-08-31T10:26:24;96690.16;;;16.93;75.25
47330;BME280;33060;50.178;7.570;2023-08-31T10:28:51;96687.28;;;17.04;75.09
47330;BME280;33060;50.178;7.570;2023-08-31T10:31:19;96691.59;;;17.05;73.66
47330;BME280;33060;50.178;7.570;2023-08-31T10:34:00;96683.81;;;17.46;74.62
47330;BME280;33060;50.178;7.570;2023-08-31T10:36:45;96695.78;;;17.34;71.69
47330;BME280;33060;50.178;7.570;2023-08-31T10:39:20;96687.34;;;17.46;69.73
47330;BME280;33060;50.178;7.570;2023-08-31T10:41:55;96686.28;;;17.05;71.00
47330;BME280;33060;50.178;7.570;2023-08-31T10:44:24;96684.47;;;17.40;71.08
47330;BME280;33060;50.178;7.570;2023-08-31T10:46:51;96689.75;;;16.62;72.00
47330;BME280;33060;50.178;7.570;2023-08-31T10:49:22;96695.84;;;16.72;70.48
47330;BME280;33060;50.178;7.570;2023-08-31T10:51:54;96692.22;;;16.99;70.51
47330;BME280;33060;50.178;7.570;2023-08-31T10:54:31;96686.34;;;16.52;71.04
47330;BME280;33060;50.178;7.570;2023-08-31T10:57:03;96692.88;;;16.57;72.64
47330;BME280;33060;50.178;7.570;2023-08-31T10:59:42;96698.09;;;16.85;71.99
47330;BME280;33060;50.178;7.570;2023-08-31T11:02:09;96692.84;;;17.19;71.20
47330;BME280;33060;50.178;7.570;2023-08-31T11:04:59;96697.03;;;16.95;71.30
47330;BME280;33060;50.178;7.570;2023-08-31T11:07:27;96699.41;;;16.63;73.49
47330;BME280;33060;50.178;7.570;2023-08-31T11:10:27;96705.72;;;16.62;74.85
47330;BME280;33060;50.178;7.570;2023-08-31T11:12:55;96704.59;;;16.64;71.53
47330;BME280;33060;50.178;7.570;2023-08-31T11:15:26;96700.03;;;16.75;70.38
47330;BME280;33060;50.178;7.570;2023-08-31T11:17:56;96705.00;;;16.70;70.54
47330;BME280;33060;50.178;7.570;2023-08-31T11:20:24;96704.91;;;16.61;71.72
47330;BME280;33060;50.178;7.570;2023-08-31T11:22:55;96702.16;;;16.53;71.78
47330;BME280;33060;50.178;7.570;2023-08-31T11:25:22;96707.44;;;17.07;74.03
47330;BME280;33060;50.178;7.570;2023-08-31T11:28:03;96696.94;;;17.65;72.35
47330;BME280;33060;50.178;7.570;2023-08-31T11:30:36;96699.53;;;18.33;72.59
47330;BME280;33060;50.178;7.570;2023-08-31T11:35:36;96692.22;;;17.85;68.00
47330;BME280;33060;50.178;7.570;2023-08-31T11:38:04;96693.75;;;18.04;67.00
47330;BME280;33060;50.178;7.570;2023-08-31T11:40:31;96688.94;;;18.07;64.76
47330;BME280;33060;50.178;7.570;2023-08-31T11:42:58;96694.13;;;17.07;64.96
47330;BME280;33060;50.178;7.570;2023-08-31T11:45:27;96695.63;;;17.09;67.07
47330;BME280;33060;50.178;7.570;2023-08-31T11:47:57;96688.44;;;17.36;67.72
47330;BME280;33060;50.178;7.570;2023-08-31T11:50:25;96676.91;;;17.27;67.56
47330;BME280;33060;50.178;7.570;2023-08-31T11:52:52;96687.63;;;16.83;67.84
47330;BME280;33060;50.178;7.570;2023-08-31T11:55:20;96686.56;;;17.02;67.21
47330;BME280;33060;50.178;7.570;2023-08-31T11:57:51;96690.03;;;16.94;66.94
47330;BME280;33060;50.178;7.570;2023-08-31T12:00:19;96678.09;;;16.63;67.06
47330;BME280;33060;50.178;7.570;2023-08-31T12:03:07;96680.19;;;16.69;67.32
47330;BME280;33060;50.178;7.570;2023-08-31T12:05:45;96680.50;;;17.18;67.92
47330;BME280;33060;50.178;7.570;2023-08-31T12:08:13;96677.69;;;17.53;65.10
47330;BME280;33060;50.178;7.570;2023-08-31T12:10:40;96686.84;;;17.77;65.54
47330;BME280;33060;50.178;7.570;2023-08-31T12:13:11;96675.00;;;17.79;66.66
47330;BME280;33060;50.178;7.570;2023-08-31T12:15:39;96678.78;;;17.35;66.34
47330;BME280;33060;50.178;7.570;2023-08-31T12:18:10;96670.22;;;17.57;68.49
47330;BME280;33060;50.178;7.570;2023-08-31T12:20:47;96678.56;;;17.62;66.73
47330;BME280;33060;50.178;7.570;2023-08-31T12:23:14;96672.16;;;17.39;63.98
47330;BME280;33060;50.178;7.570;2023-08-31T12:25:47;96662.25;;;17.65;66.18
47330;BME280;33060;50.178;7.570;2023-08-31T12:28:15;96667.50;;;17.41;62.61
47330;BME280;33060;50.178;7.570;2023-08-31T12:30:42;96660.88;;;17.53;61.98
47330;BME280;33060;50.178;7.570;2023-08-31T12:33:12;96659.44;;;17.33;60.62
47330;BME280;33060;50.178;7.570;2023-08-31T12:35:39;96660.16;;;17.77;61.20
47330;BME280;33060;50.178;7.570;2023-08-31T12:38:06;96651.91;;;18.21;62.34
47330;BME280;33060;50.178;7.570;2023-08-31T12:40:33;96654.28;;;18.64;60.56
47330;BME280;33060;50.178;7.570;2023-08-31T12:43:00;96668.28;;;18.18;59.99
47330;BME280;33060;50.178;7.570;2023-08-31T12:45:26;96659.06;;;18.04;58.47
47330;BME280;33060;50.178;7.570;2023-08-31T12:47:53;96655.06;;;17.58;61.02
47330;BME280;33060;50.178;7.570;2023-08-31T12:50:20;96653.50;;;17.73;62.69
47330;BME280;33060;50.178;7.570;2023-08-31T12:52:47;96652.91;;;18.03;60.19
47330;BME280;33060;50.178;7.570;2023-08-31T12:55:14;96665.03;;;17.98;58.87
47330;BME280;33060;50.178;7.570;2023-08-31T12:57:42;96665.34;;;17.87;59.66
47330;BME280;33060;50.178;7.570;2023-08-31T13:00:09;96663.13;;;18.24;58.96
47330;BME280;33060;50.178;7.570;2023-08-31T13:02:40;96660.75;;;18.13;57.85
47330;BME280;33060;50.178;7.570;2023-08-31T13:05:09;96662.69;;;18.70;54.85
47330;BME280;33060;50.178;7.570;2023-08-31T13:07:36;96661.13;;;18.26;55.85
47330;BME280;33060;50.178;7.570;2023-08-31T13:10:04;96649.06;;;18.14;56.24
47330;BME280;33060;50.178;7.570;2023-08-31T13:12:31;96661.44;;;18.31;57.74